Time;durP1;ratioP1;P1;durP2;ratioP2;P2;SDS_P1;SDS_P2;PMS_P1;PMS_P2;Temp;Humidity;BMP_temperature;BMP_pressure;BME280_temperature;BME280_humidity;BME280_pressure;Samples;Min_cycle;Max_cycle;Signal;HPM_P1;HPM_P2
2022/05/28 00:01:16;;;;;;;13.85;3.80;;;;;;;10.53;86.00;67945.88;4993148;28;20462;-83
2022/05/28 00:03:42;;;;;;;13.98;3.15;;;;;;;10.54;86.08;67939.59;4993500;28;20042;-84
2022/05/28 00:06:11;;;;;;;9.35;3.15;;;;;;;;;;4994700;28;20062;-86
2022/05/28 00:08:36;;;;;;;13.90;3.75;;;;;;;;;;4993812;28;20394;-84
2022/05/28 00:11:01;;;;;;;11.27;2.90;;;;;;;;;;4994418;28;20097;-84
2022/05/28 00:13:27;;;;;;;10.55;2.78;;;;;;;10.52;86.21;67942.66;4992631;28;20305;-82
2022/05/28 00:15:53;;;;;;;13.77;3.03;;;;;;;10.54;86.21;67944.94;4992766;28;20397;-82
2022/05/28 00:18:18;;;;;;;9.05;2.72;;;;;;;;;;4993878;28;20046;-82
2022/05/28 00:20:43;;;;;;;15.93;3.35;;;;;;;10.57;86.10;67948.31;4991864;28;20419;-85
2022/05/28 00:23:08;;;;;;;8.27;2.88;;;;;;;;;;5006909;28;20043;-82
2022/05/28 00:25:34;;;;;;;13.80;3.17;;;;;;;10.52;86.19;67945.31;5007240;28;20038;-85
2022/05/28 00:27:59;;;;;;;10.52;2.92;;;;;;;10.53;86.42;67943.22;4991930;28;20296;-83
2022/05/28 00:30:25;;;;;;;9.32;2.78;;;;;;;;;;4992369;28;20042;-82
2022/05/28 00:32:50;;;;;;;8.63;3.20;;;;;;;10.51;86.46;67940.97;4991166;28;20034;-83
2022/05/28 00:35:18;;;;;;;12.00;2.72;;;;;;;10.50;86.46;67943.06;4991551;28;20054;-82
2022/05/28 00:37:45;;;;;;;14.50;2.53;;;;;;;10.48;86.85;67937.56;4992701;28;20035;-83
2022/05/28 00:40:15;;;;;;;10.85;2.72;;;;;;;10.49;86.86;67933.94;4991859;28;20128;-85
2022/05/28 00:42:40;;;;;;;12.95;3.08;;;;;;;;;;4989345;28;20043;-83
2022/05/28 00:45:06;;;;;;;10.68;3.25;;;;;;;;;;4991541;28;20112;-82
2022/05/28 00:47:32;;;;;;;13.65;3.10;;;;;;;10.51;87.34;67941.53;4991701;28;20049;-82
2022/05/28 00:49:57;;;;;;;11.13;2.70;;;;;;;10.46;87.47;67935.28;5006392;28;20053;-82
2022/05/28 00:52:24;;;;;;;11.27;3.10;;;;;;;;;;4990609;28;20039;-84
2022/05/28 00:54:50;;;;;;;9.35;3.22;;;;;;;10.52;87.28;67945.31;4992460;28;20058;-82
2022/05/28 00:57:16;;;;;;;12.90;3.15;;;;;;;10.51;87.35;67946.84;4992010;28;20038;-82
2022/05/28 00:59:43;;;;;;;12.18;3.40;;;;;;;10.52;87.25;67942.66;4990945;28;20054;-82
2022/05/28 01:02:24;;;;;;;8.07;2.33;;;;;;;10.49;87.42;67939.25;5006823;28;20027;-82
2022/05/28 01:05:01;;;;;;;9.48;2.60;;;;;;;10.47;87.77;67936.41;4990031;28;20097;-83
2022/05/28 01:07:33;;;;;;;10.35;3.42;;;;;;;10.49;87.83;67930.69;4992333;28;20048;-83
2022/05/28 01:10:26;;;;;;;17.00;3.40;;;;;;;10.50;87.45;67939.81;4992178;28;20057;-83
2022/05/28 01:12:54;;;;;;;10.00;2.63;;;;;;;10.46;87.84;67938.50;4990664;28;20034;-83
2022/05/28 01:15:23;;;;;;;10.67;3.33;;;;;;;10.46;88.28;67938.50;4992284;28;20064;-84
2022/05/28 01:17:55;;;;;;;11.35;3.30;;;;;;;10.48;88.05;67938.13;4991486;28;20108;-83
2022/05/28 01:20:24;;;;;;;8.35;2.55;;;;;;;10.46;88.20;67935.84;5006031;28;20042;-84
2022/05/28 01:22:52;;;;;;;;;;;;;;;10.47;88.09;67931.09;4990876;28;20042;-84
2022/05/28 01:25:57;;;;;;;9.63;2.78;;;;;;;10.37;88.68;67926.19;4990642;28;19917;-84
2022/05/28 01:28:31;;;;;;;11.85;3.35;;;;;;;10.34;89.01;67922.22;4991606;28;20050;-83
2022/05/28 01:30:58;;;;;;;7.50;2.17;;;;;;;10.33;89.10;67921.66;4994795;28;20047;-83
2022/05/28 01:33:24;;;;;;;9.93;3.05;;;;;;;10.36;88.98;67929.84;4994693;28;20409;-83
2022/05/28 01:35:51;;;;;;;13.32;2.70;;;;;;;10.35;89.22;67918.03;4985216;28;20052;-83
2022/05/28 01:38:19;;;;;;;10.77;2.90;;;;;;;10.38;89.00;67927.31;4986081;28;20048;-83
2022/05/28 01:40:45;;;;;;;8.50;2.38;;;;;;;10.36;89.11;67925.06;4986027;28;20121;-83
2022/05/28 01:43:13;;;;;;;8.23;2.78;;;;;;;10.34;89.58;67922.78;4993184;28;20041;-83
2022/05/28 01:45:44;;;;;;;8.80;2.58;;;;;;;10.36;89.40;67924.50;4987498;28;20533;-83
2022/05/28 01:48:11;;;;;;;8.75;2.67;;;;;;;10.36;89.68;67927.16;4988158;28;20060;-83
2022/05/28 01:50:38;;;;;;;10.43;2.85;;;;;;;;;;4987018;28;20121;-83
2022/05/28 01:53:07;;;;;;;8.55;2.75;;;;;;;10.39;89.44;67928.47;4984928;28;20515;-83
2022/05/28 01:55:38;;;;;;;8.52;2.80;;;;;;;10.43;89.35;67935.09;4988375;28;20050;-83
2022/05/28 01:58:03;;;;;;;13.77;3.70;;;;;;;;;;4987146;28;20034;-84
2022/05/28 02:00:29;;;;;;;10.93;2.65;;;;;;;;;;4989669;28;20045;-84
2022/05/28 02:02:59;;;;;;;9.63;2.72;;;;;;;;;;4987654;28;20379;-83
2022/05/28 02:05:24;;;;;;;12.32;3.08;;;;;;;10.47;90.06;67931.09;4989870;28;20038;-83
2022/05/28 02:07:50;;;;;;;12.00;3.13;;;;;;;10.49;90.05;67933.94;4989497;28;20057;-83
2022/05/28 02:10:18;;;;;;;8.98;2.92;;;;;;;10.51;89.97;67940.97;4990694;28;20161;-83
2022/05/28 02:13:08;;;;;;;9.25;2.35;;;;;;;;;;4988902;28;20574;-83
2022/05/28 02:15:48;;;;;;;11.18;3.47;;;;;;;10.52;90.36;67944.75;4991348;28;20054;-84
2022/05/28 02:18:22;;;;;;;13.35;3.28;;;;;;;10.54;90.41;67939.59;4968987;28;20121;-84
2022/05/28 02:21:05;;;;;;;9.02;2.70;;;;;;;;;;4986475;28;20059;-83
2022/05/28 02:23:45;;;;;;;11.32;3.28;;;;;;;10.56;90.83;67941.88;4982908;28;20035;-83
2022/05/28 02:26:14;;;;;;;10.70;2.30;;;;;;;10.53;91.51;67943.81;4998304;28;20046;-83
2022/05/28 02:28:41;;;;;;;14.73;3.45;;;;;;;10.58;91.65;67951.56;4991552;28;20046;-83
2022/05/28 02:31:18;;;;;;;13.60;3.58;;;;;;;10.59;91.87;67950.03;4988719;28;20045;-83
2022/05/28 02:33:44;;;;;;;10.68;3.30;;;;;;;10.59;92.38;67950.59;4975781;28;20049;-83
2022/05/28 02:36:12;;;;;;;9.73;2.83;;;;;;;10.60;92.68;67951.16;4989463;28;20310;-84
2022/05/28 02:38:37;;;;;;;11.10;2.78;;;;;;;10.57;92.72;67948.31;4991049;28;20043;-83
2022/05/28 02:41:03;;;;;;;11.98;3.42;;;;;;;10.54;93.00;67944.38;4988620;28;20632;-83
2022/05/28 02:43:31;;;;;;;11.57;2.97;;;;;;;10.49;94.02;67941.34;4989678;28;20042;-83
2022/05/28 02:45:57;;;;;;;11.40;3.40;;;;;;;10.44;94.65;67933.56;4987802;28;20046;-82
2022/05/28 02:48:23;;;;;;;11.15;3.30;;;;;;;;;;4989076;28;20057;-83
2022/05/28 02:50:48;;;;;;;14.30;3.80;;;;;;;10.37;95.46;67925.63;4988284;28;20038;-84
2022/05/28 02:53:13;;;;;;;11.98;3.90;;;;;;;10.37;95.53;67925.63;4990581;28;20661;-84
2022/05/28 02:55:40;;;;;;;11.80;3.38;;;;;;;10.30;95.67;67920.94;4988711;28;20359;-84
2022/05/28 02:58:05;;;;;;;16.17;4.25;;;;;;;10.27;96.23;67914.28;4989309;28;20042;-83
2022/05/28 03:00:31;;;;;;;12.48;3.35;;;;;;;;;;4989212;28;20030;-83
2022/05/28 03:02:56;;;;;;;12.60;4.72;;;;;;;10.14;97.02;67900.66;4988662;28;20065;-83
2022/05/28 03:05:22;;;;;;;11.63;4.00;;;;;;;;;;4988519;28;20699;-83
2022/05/28 03:07:47;;;;;;;12.07;4.10;;;;;;;;;;4988339;28;20042;-83
2022/05/28 03:10:13;;;;;;;10.77;3.42;;;;;;;10.04;97.51;67888.72;4988785;28;20049;-83
2022/05/28 03:12:39;;;;;;;13.07;3.67;;;;;;;;;;4988428;28;20045;-83
2022/05/28 03:15:05;;;;;;;12.88;3.53;;;;;;;9.93;98.31;67871.53;4988761;28;20046;-83
2022/05/28 03:17:31;;;;;;;11.35;3.33;;;;;;;;;;4987982;28;20038;-82
2022/05/28 03:19:59;;;;;;;9.50;3.33;;;;;;;9.90;98.87;67868.13;4989288;28;20050;-82
2022/05/28 03:22:24;;;;;;;12.10;3.72;;;;;;;9.85;99.31;67862.44;4991659;28;20097;-82
2022/05/28 03:24:49;;;;;;;12.32;3.83;;;;;;;9.85;98.95;67863.00;4992831;28;20042;-82
2022/05/28 03:27:15;;;;;;;14.25;4.18;;;;;;;9.84;99.24;67869.84;4993531;28;20062;-83
2022/05/28 03:29:40;;;;;;;13.15;4.07;;;;;;;9.83;99.19;67865.50;4992152;28;20046;-83
2022/05/28 03:32:06;;;;;;;15.18;4.05;;;;;;;9.79;99.75;67861.53;4993701;28;20113;-83
2022/05/28 03:34:31;;;;;;;12.00;3.78;;;;;;;9.82;99.53;67867.03;4993151;28;20049;-83
2022/05/28 03:36:56;;;;;;;12.48;4.07;;;;;;;9.82;99.33;67859.63;4992243;28;20452;-83
2022/05/28 03:39:21;;;;;;;14.50;4.20;;;;;;;9.75;100.00;67856.97;4989845;28;20042;-83
2022/05/28 03:41:47;;;;;;;15.88;3.75;;;;;;;9.68;100.00;67849.63;4991006;28;20034;-83
2022/05/28 03:44:12;;;;;;;11.65;3.95;;;;;;;;;;4991671;28;20041;-83
2022/05/28 03:46:38;;;;;;;14.50;3.70;;;;;;;9.69;100.00;67850.19;5003933;28;20084;-83
2022/05/28 03:49:07;;;;;;;11.82;3.80;;;;;;;9.65;100.00;67848.88;5005496;28;20046;-82
2022/05/28 03:51:32;;;;;;;9.05;3.60;;;;;;;9.59;100.00;67839.41;4989711;28;20053;-82
2022/05/28 03:53:58;;;;;;;14.05;4.38;;;;;;;9.58;100.00;67840.94;4990884;28;20099;-83
2022/05/28 03:56:25;;;;;;;11.68;3.58;;;;;;;;;;4990583;28;20180;-83
2022/05/28 03:58:50;;;;;;;11.50;4.07;;;;;;;9.56;100.00;67835.44;4987339;28;20096;-83
2022/05/28 04:01:16;;;;;;;16.33;4.05;;;;;;;;;;4988524;28;20106;-83
2022/05/28 04:03:41;;;;;;;12.30;4.25;;;;;;;9.56;100.00;67835.44;4992801;28;20042;-82
2022/05/28 04:06:08;;;;;;;11.07;3.88;;;;;;;9.52;100.00;67834.13;5006431;28;20042;-83
2022/05/28 04:08:34;;;;;;;12.05;3.25;;;;;;;9.56;100.00;67838.09;4993514;28;20047;-82
2022/05/28 04:11:00;;;;;;;12.68;3.42;;;;;;;9.62;100.00;67844.91;4991041;28;20053;-81
2022/05/28 04:13:25;;;;;;;11.80;3.25;;;;;;;9.65;100.00;67846.22;4993531;28;20070;-80
2022/05/28 04:15:50;;;;;;;9.68;3.08;;;;;;;;;;5008346;28;20193;-82
2022/05/28 04:18:16;;;;;;;10.07;3.42;;;;;;;9.71;100.00;67853.00;4996051;28;20042;-81
2022/05/28 04:20:41;;;;;;;8.85;3.08;;;;;;;;;;4994919;28;20046;-80
2022/05/28 04:23:07;;;;;;;8.20;2.95;;;;;;;9.77;100.00;67858.69;4993098;28;20054;-82
2022/05/28 04:25:32;;;;;;;15.93;3.33;;;;;;;9.75;100.00;67851.09;4993149;28;20034;-81
2022/05/28 04:27:57;;;;;;;10.05;3.60;;;;;;;;;;4994410;28;20056;-80
2022/05/28 04:30:23;;;;;;;7.78;2.80;;;;;;;9.78;100.00;67863.06;4994143;28;20402;-82
2022/05/28 04:32:48;;;;;;;10.93;3.65;;;;;;;9.78;100.00;67859.81;4992909;28;20081;-81
2022/05/28 04:35:14;;;;;;;10.77;2.80;;;;;;;9.78;100.00;67859.81;4994196;28;20042;-81
2022/05/28 04:37:40;;;;;;;16.15;3.25;;;;;;;9.82;100.00;67864.94;4991053;28;20045;-80
2022/05/28 04:40:07;;;;;;;12.85;2.60;;;;;;;9.86;100.00;67868.88;4993972;28;20047;-82
2022/05/28 04:42:32;;;;;;;12.75;3.38;;;;;;;9.87;100.00;67870.03;4992537;28;20082;-81
2022/05/28 04:44:57;;;;;;;8.63;3.10;;;;;;;9.90;99.88;67868.69;4993400;28;20089;-81
2022/05/28 04:47:23;;;;;;;11.63;3.10;;;;;;;9.99;99.34;67883.09;4991446;28;20042;-82
2022/05/28 04:49:49;;;;;;;13.52;3.72;;;;;;;9.97;99.79;67880.81;4993171;28;20054;-81
2022/05/28 04:52:14;;;;;;;8.23;2.35;;;;;;;10.02;98.88;67879.06;4993090;28;20045;-82
2022/05/28 04:54:39;;;;;;;9.70;2.85;;;;;;;10.06;98.38;67891.56;4992103;28;20049;-82
2022/05/28 04:57:05;;;;;;;13.95;3.20;;;;;;;10.07;97.60;67894.78;4993821;28;20062;-80
2022/05/28 04:59:30;;;;;;;10.27;2.70;;;;;;;10.11;97.06;67899.91;5007417;28;20057;-81
2022/05/28 05:01:55;;;;;;;7.95;2.65;;;;;;;10.12;96.62;67900.47;4990820;28;20050;-81
2022/05/28 05:04:21;;;;;;;7.97;2.28;;;;;;;10.16;96.32;67902.94;4994027;28;20039;-82
2022/05/28 05:06:46;;;;;;;8.35;2.55;;;;;;;10.16;95.95;67902.94;4992205;28;20124;-82
2022/05/28 05:09:11;;;;;;;8.90;2.35;;;;;;;10.20;95.09;67906.31;4993600;28;20046;-81
2022/05/28 05:11:37;;;;;;;7.72;2.33;;;;;;;10.25;94.74;67912.00;4992384;28;20042;-82
2022/05/28 05:14:02;;;;;;;8.88;2.00;;;;;;;10.34;94.36;67922.78;4992808;28;20050;-82
2022/05/28 05:16:27;;;;;;;7.40;2.28;;;;;;;10.36;93.36;67919.75;5006945;28;20161;-82
2022/05/28 05:18:53;;;;;;;14.77;2.05;;;;;;;10.38;92.48;67929.44;4990889;28;20142;-83
2022/05/28 05:21:18;;;;;;;8.07;1.83;;;;;;;10.47;91.88;67942.31;4987791;28;20069;-82
2022/05/28 05:23:44;;;;;;;7.25;1.88;;;;;;;10.52;91.49;67942.09;4988296;28;20118;-82
2022/05/28 05:26:10;;;;;;;8.25;1.83;;;;;;;;;;4988236;28;20129;-83
2022/05/28 05:28:35;;;;;;;6.70;1.75;;;;;;;;;;4988431;28;20042;-83
2022/05/28 05:31:01;;;;;;;8.80;1.60;;;;;;;10.67;89.37;67958.53;4988831;28;20065;-83
2022/05/28 05:33:26;;;;;;;7.00;2.35;;;;;;;;;;4989559;28;20120;-81
2022/05/28 05:35:51;;;;;;;11.88;1.88;;;;;;;10.76;87.91;67969.34;4989692;28;20046;-83
2022/05/28 05:38:16;;;;;;;6.97;1.52;;;;;;;10.80;88.13;67973.88;4991649;28;20049;-81
2022/05/28 05:40:42;;;;;;;8.98;2.05;;;;;;;10.84;87.74;67977.84;5006354;28;20046;-83
2022/05/28 05:43:07;;;;;;;8.70;1.33;;;;;;;10.89;87.10;67982.94;5003651;28;20100;-82
2022/05/28 05:45:32;;;;;;;6.28;1.52;;;;;;;10.95;85.55;67989.75;5007371;28;20076;-82
2022/05/28 05:47:58;;;;;;;6.68;1.40;;;;;;;;;;4990470;28;20044;-81
2022/05/28 05:50:23;;;;;;;11.13;1.70;;;;;;;11.03;84.84;68002.06;4992376;28;20030;-82
2022/05/28 05:52:49;;;;;;;9.35;1.42;;;;;;;11.13;84.79;68004.28;4988244;28;20273;-83
2022/05/28 05:55:15;;;;;;;9.60;1.65;;;;;;;11.21;84.19;68013.94;4980938;28;20050;-83
2022/05/28 05:57:40;;;;;;;7.55;2.20;;;;;;;11.22;83.44;68014.50;4987139;28;20069;-82
2022/05/28 06:00:06;;;;;;;7.90;1.63;;;;;;;;;;4987346;28;20070;-82
2022/05/28 06:02:32;;;;;;;6.38;1.58;;;;;;;11.35;82.84;68039.94;4988906;28;20046;-82
2022/05/28 06:04:58;;;;;;;6.82;1.52;;;;;;;;;;4987256;28;20116;-82
2022/05/28 06:07:23;;;;;;;9.73;1.75;;;;;;;;;;4993011;28;20124;-82
2022/05/28 06:09:48;;;;;;;8.70;1.92;;;;;;;;;;4990468;28;20057;-82
2022/05/28 06:12:14;;;;;;;7.70;1.60;;;;;;;11.57;81.37;68058.47;4988414;28;20041;-82
2022/05/28 06:14:39;;;;;;;8.85;2.10;;;;;;;11.62;80.47;68064.13;4991025;28;20735;-82
2022/05/28 06:17:04;;;;;;;7.65;1.88;;;;;;;;;;5006524;28;20461;-81
2022/05/28 06:19:30;;;;;;;10.43;2.63;;;;;;;;;;4990139;28;20049;-83
2022/05/28 06:21:59;;;;;;;8.30;1.30;;;;;;;11.79;79.51;68082.88;4987357;28;20280;-84
2022/05/28 06:24:25;;;;;;;7.55;1.67;;;;;;;11.78;79.01;68076.97;4988751;28;20046;-82
2022/05/28 06:26:51;;;;;;;6.72;1.95;;;;;;;;;;4987969;28;20038;-83
2022/05/28 06:29:16;;;;;;;7.55;1.88;;;;;;;11.86;78.25;68090.84;4987368;28;20050;-83
2022/05/28 06:31:41;;;;;;;11.20;1.58;;;;;;;11.81;77.26;68080.38;4984915;28;20100;-83
2022/05/28 06:34:07;;;;;;;8.32;1.73;;;;;;;;;;5004127;28;20129;-83
2022/05/28 06:36:32;;;;;;;12.13;1.80;;;;;;;11.98;78.70;68103.91;4992027;28;20089;-83
2022/05/28 06:38:57;;;;;;;9.25;2.13;;;;;;;;;;4986794;28;20626;-83
2022/05/28 06:41:23;;;;;;;7.70;1.73;;;;;;;12.07;77.63;68108.81;4985852;28;20438;-82
2022/05/28 06:43:48;;;;;;;8.15;1.83;;;;;;;;;;5005695;28;20038;-83
2022/05/28 06:46:13;;;;;;;10.27;1.60;;;;;;;12.18;75.68;68126.63;4991838;28;20058;-83
2022/05/28 06:48:38;;;;;;;7.00;2.20;;;;;;;;;;5007032;28;20648;-83
2022/05/28 06:51:06;;;;;;;9.13;1.70;;;;;;;12.27;74.31;68136.88;4985573;28;20042;-83
2022/05/28 06:53:45;;;;;;;8.85;2.10;;;;;;;12.29;74.61;68139.16;4989750;28;20050;-82
2022/05/28 06:56:11;;;;;;;8.85;2.15;;;;;;;;;;4984517;28;20042;-83
2022/05/28 06:58:38;;;;;;;9.07;1.60;;;;;;;12.26;72.77;68135.16;4994849;28;20057;-82
2022/05/28 07:01:04;;;;;;;6.13;1.60;;;;;;;12.23;72.29;68135.00;5003178;28;20041;-83
2022/05/28 07:03:31;;;;;;;6.55;2.17;;;;;;;12.20;70.82;68123.59;4986092;28;20042;-83
2022/05/28 07:05:56;;;;;;;8.20;2.58;;;;;;;12.19;70.52;68127.78;4990671;28;20042;-82
2022/05/28 07:08:23;;;;;;;7.30;1.65;;;;;;;;;;4991488;28;20104;-82
2022/05/28 07:10:53;;;;;;;9.60;1.85;;;;;;;12.28;70.65;68138.00;4989641;28;20097;-82
2022/05/28 07:13:19;;;;;;;7.85;2.30;;;;;;;;;;4990455;28;20421;-82
2022/05/28 07:15:45;;;;;;;10.07;1.85;;;;;;;12.55;68.09;68167.56;5006119;28;20131;-83
2022/05/28 07:18:10;;;;;;;7.75;1.65;;;;;;;;;;4993892;28;20048;-83
2022/05/28 07:20:36;;;;;;;4.85;1.23;;;;;;;;;;4990818;28;20057;-83
2022/05/28 07:23:14;;;;;;;9.80;1.65;;;;;;;12.62;68.23;68170.72;5002945;28;20042;-83
2022/05/28 07:25:40;;;;;;;4.80;1.33;;;;;;;;;;4992501;28;20043;-83
2022/05/28 07:28:24;;;;;;;6.35;2.08;;;;;;;;;;4995317;28;20039;-82
2022/05/28 07:30:57;;;;;;;8.40;1.77;;;;;;;13.07;66.96;68220.19;4990980;28;20185;-83
2022/05/28 07:33:25;;;;;;;6.95;1.80;;;;;;;13.08;66.36;68218.66;5005737;28;20082;-83
2022/05/28 07:35:51;;;;;;;7.43;1.70;;;;;;;12.96;67.00;68213.03;4991840;28;20525;-83
2022/05/28 07:38:16;;;;;;;8.90;1.90;;;;;;;12.94;66.69;68205.41;4990125;28;20110;-83
2022/05/28 07:40:41;;;;;;;7.30;1.52;;;;;;;13.03;66.40;68223.66;4996424;28;20069;-83
2022/05/28 07:43:06;;;;;;;7.82;1.40;;;;;;;;;;4995049;28;20045;-83
2022/05/28 07:45:35;;;;;;;9.55;2.03;;;;;;;;;;4994200;28;20042;-83
2022/05/28 07:48:01;;;;;;;10.63;2.22;;;;;;;13.02;65.54;68214.50;4996778;28;20054;-83
2022/05/28 07:50:26;;;;;;;7.45;2.08;;;;;;;;;;4993042;28;20042;-83
2022/05/28 07:52:51;;;;;;;9.37;1.97;;;;;;;12.95;66.79;68206.56;4982782;28;20081;-83
2022/05/28 07:55:16;;;;;;;7.40;1.90;;;;;;;;;;5009305;28;20685;-83
2022/05/28 07:57:42;;;;;;;7.97;2.05;;;;;;;12.94;67.83;68210.75;4994884;28;20533;-83
2022/05/28 08:00:07;;;;;;;7.32;1.80;;;;;;;;;;4993431;28;20153;-83
2022/05/28 08:02:33;;;;;;;8.50;1.67;;;;;;;12.83;65.84;68198.81;4994320;28;20181;-83
2022/05/28 08:04:58;;;;;;;7.18;2.15;;;;;;;;;;4994622;28;20054;-83
2022/05/28 08:07:23;;;;;;;10.77;1.57;;;;;;;13.00;65.50;68217.56;4996357;28;20062;-83
2022/05/28 08:09:48;;;;;;;8.80;1.92;;;;;;;;;;5007118;28;20325;-83
2022/05/28 08:12:14;;;;;;;6.00;1.63;;;;;;;;;;4993357;28;20046;-83
2022/05/28 08:14:39;;;;;;;8.20;1.70;;;;;;;;;;4991205;28;20309;-84
2022/05/28 08:17:04;;;;;;;6.97;1.90;;;;;;;13.13;64.12;68227.00;4991966;28;20549;-83
2022/05/28 08:19:31;;;;;;;6.30;1.65;;;;;;;;;;5009637;28;20113;-83
2022/05/28 08:24:40;;;;;;;8.88;1.70;;;;;;;;;;4994843;28;20462;-83
2022/05/28 08:27:05;;;;;;;9.82;1.70;;;;;;;12.94;66.07;68210.75;4994233;28;20078;-83
2022/05/28 08:29:30;;;;;;;8.38;1.90;;;;;;;;;;4994566;28;20069;-83
2022/05/28 08:31:56;;;;;;;7.63;2.10;;;;;;;12.94;66.36;68205.97;5008351;28;20084;-83
2022/05/28 08:34:21;;;;;;;4.63;1.58;;;;;;;;;;4993576;28;20054;-83
2022/05/28 08:36:46;;;;;;;6.10;1.23;;;;;;;13.28;64.21;68249.44;4983279;28;20038;-83
2022/05/28 08:39:12;;;;;;;6.57;1.48;;;;;;;13.47;63.98;68269.91;4992129;28;20122;-83
2022/05/28 08:41:42;;;;;;;9.27;1.88;;;;;;;;;;5006395;28;20753;-83
2022/05/28 08:44:17;;;;;;;7.20;1.80;;;;;;;13.66;60.33;68285.59;5005854;28;20061;-83
2022/05/28 08:46:45;;;;;;;7.38;2.00;;;;;;;14.02;58.60;68325.44;4993092;28;20035;-83
2022/05/28 08:49:13;;;;;;;6.65;1.77;;;;;;;14.28;60.18;68351.78;4986159;28;20042;-83
2022/05/28 08:51:48;;;;;;;5.07;1.70;;;;;;;;;;4985214;28;20043;-83
2022/05/28 08:54:26;;;;;;;7.97;1.75;;;;;;;13.99;58.09;68319.91;4988837;28;20050;-82
2022/05/28 08:56:53;;;;;;;5.82;1.60;;;;;;;;;;4992587;28;20693;-83
2022/05/28 08:59:18;;;;;;;7.10;2.05;;;;;;;;;;4993274;28;20057;-82
2022/05/28 09:01:44;;;;;;;6.83;1.80;;;;;;;13.52;60.54;68275.59;4993440;28;20043;-83
2022/05/28 09:04:20;;;;;;;6.28;1.58;;;;;;;;;;4988942;28;20060;-83
2022/05/28 09:06:53;;;;;;;9.48;2.00;;;;;;;;;;4992914;28;20153;-83
2022/05/28 09:09:36;;;;;;;5.20;1.70;;;;;;;14.12;59.16;68342.72;5005442;28;20527;-83
2022/05/28 09:12:04;;;;;;;9.45;2.28;;;;;;;;;;4991802;28;20046;-83
2022/05/28 09:14:34;;;;;;;12.55;2.30;;;;;;;14.35;58.14;68362.41;4988109;28;20057;-82
2022/05/28 09:17:03;;;;;;;9.40;1.90;;;;;;;14.49;57.33;68385.81;4990978;28;20053;-84
2022/05/28 09:19:37;;;;;;;8.65;1.70;;;;;;;;;;4986953;28;20038;-83
2022/05/28 09:22:02;;;;;;;5.45;1.75;;;;;;;14.36;55.69;68363.56;4984368;28;20050;-81
2022/05/28 09:24:30;;;;;;;7.60;1.70;;;;;;;14.42;54.31;68370.38;4987104;28;20060;-84
2022/05/28 09:27:06;;;;;;;7.32;1.70;;;;;;;14.31;53.23;68363.22;4991864;28;20116;-84
2022/05/28 09:29:55;;;;;;;6.82;2.10;;;;;;;14.14;55.43;68345.00;4992105;28;20100;-83
2022/05/28 09:32:34;;;;;;;6.53;1.63;;;;;;;13.99;56.04;68328.50;5002135;28;20042;-84
2022/05/28 09:35:22;;;;;;;10.60;2.15;;;;;;;13.86;55.45;68315.81;4984220;28;20383;-84
2022/05/28 09:38:08;;;;;;;5.50;1.80;;;;;;;13.76;52.26;68297.56;4984871;28;20510;-83
2022/05/28 09:40:48;;;;;;;9.23;1.38;;;;;;;13.74;53.04;68300.63;4982065;28;20093;-82
2022/05/28 09:43:23;;;;;;;7.03;1.60;;;;;;;14.04;52.87;68333.03;4986636;28;20062;-83
2022/05/28 09:46:08;;;;;;;7.75;1.60;;;;;;;;;;4982723;28;20062;-84
2022/05/28 09:48:33;;;;;;;5.55;1.60;;;;;;;;;;4984823;28;20050;-84
2022/05/28 09:50:59;;;;;;;4.68;1.30;;;;;;;;;;4984823;28;20054;-84
2022/05/28 09:56:26;;;;;;;5.25;1.20;;;;;;;15.14;49.26;68456.03;4996120;28;20077;-84
2022/05/28 09:58:52;;;;;;;6.80;1.65;;;;;;;15.22;48.79;68459.22;4986532;28;20034;-83
2022/05/28 10:01:22;;;;;;;9.95;1.70;;;;;;;;;;4982912;28;20042;-83
2022/05/28 10:06:43;;;;;;;5.88;1.83;;;;;;;14.74;52.27;68405.69;4992474;28;20053;-83
2022/05/28 10:09:20;;;;;;;6.45;1.48;;;;;;;14.54;52.47;68384.06;4979968;28;20125;-84
2022/05/28 10:12:09;;;;;;;6.80;1.58;;;;;;;;;;4999747;28;20042;-84
2022/05/28 10:14:34;;;;;;;7.15;1.85;;;;;;;14.36;53.64;68364.13;4989674;28;20043;-82
2022/05/28 10:17:01;;;;;;;5.10;1.48;;;;;;;;;;4982092;28;20560;-81
2022/05/28 10:19:34;;;;;;;7.72;1.67;;;;;;;14.30;50.77;68362.06;4984913;28;20053;-84
2022/05/28 10:22:03;;;;;;;3.58;1.23;;;;;;;14.56;52.01;68396.50;4997558;28;20042;-84
2022/05/28 10:24:34;;;;;;;7.28;1.80;;;;;;;;;;4976770;28;20092;-83
2022/05/28 10:27:01;;;;;;;5.53;1.67;;;;;;;15.03;48.70;68438.16;4983710;28;20062;-83
2022/05/28 10:29:40;;;;;;;6.03;1.77;;;;;;;15.14;48.13;68450.69;4981428;28;20030;-83
2022/05/28 10:32:49;;;;;;;4.13;1.13;;;;;;;14.98;50.15;68433.00;4980785;28;20050;-83
2022/05/28 10:35:21;;;;;;;7.35;1.67;;;;;;;14.85;51.13;68418.78;4987132;28;20704;-83
2022/05/28 10:37:46;;;;;;;8.23;1.95;;;;;;;14.73;52.15;68410.50;4988965;28;20038;-82
2022/05/28 10:40:16;;;;;;;9.23;2.20;;;;;;;;;;4989389;28;20047;-83
2022/05/28 10:42:43;;;;;;;7.75;1.80;;;;;;;14.53;52.87;68380.25;4987525;28;20043;-82
2022/05/28 10:45:09;;;;;;;5.70;1.85;;;;;;;14.49;53.08;68383.69;4990254;28;20074;-83
2022/05/28 10:47:46;;;;;;;7.68;1.75;;;;;;;14.66;53.89;68403.06;4989419;28;20066;-82
2022/05/28 10:50:33;;;;;;;7.03;1.73;;;;;;;14.68;53.32;68396.19;4983016;28;20259;-82
2022/05/28 10:53:36;;;;;;;5.80;1.55;;;;;;;14.84;52.34;68422.44;4983444;28;20051;-82
2022/05/28 10:56:04;;;;;;;7.78;1.80;;;;;;;15.02;51.37;68442.38;4981877;28;20038;-85
2022/05/28 10:58:32;;;;;;;6.03;1.50;;;;;;;;;;4985904;28;20066;-83
2022/05/28 11:01:04;;;;;;;9.53;1.80;;;;;;;;;;4982569;28;20466;-84
2022/05/28 11:03:47;;;;;;;7.32;1.75;;;;;;;15.50;52.28;68490.53;4980504;28;20050;-84
2022/05/28 11:06:27;;;;;;;6.53;1.80;;;;;;;15.49;53.98;68489.97;4981157;28;20061;-82
2022/05/28 11:09:12;;;;;;;10.02;2.42;;;;;;;15.36;53.03;68483.19;4980902;28;20080;-82
2022/05/28 11:11:53;;;;;;;8.85;1.70;;;;;;;15.20;51.60;68462.31;4996055;28;20146;-84
2022/05/28 11:14:18;;;;;;;8.93;1.60;;;;;;;15.25;52.43;68468.56;4984351;28;20054;-83
2022/05/28 11:16:57;;;;;;;5.47;1.35;;;;;;;15.52;50.38;68492.81;4981632;28;20042;-84
2022/05/28 11:19:31;;;;;;;;;;;;;;;15.42;47.95;68482.00;4990954;28;20046;-80
2022/05/28 11:22:06;;;;;;;7.40;1.70;;;;;;;15.14;51.21;68455.47;4980382;28;20648;-84
2022/05/28 11:24:41;;;;;;;8.18;1.85;;;;;;;;;;4994241;28;20050;-85
2022/05/28 11:27:12;;;;;;;7.72;1.70;;;;;;;;;;4980717;28;20034;-84
2022/05/28 11:29:47;;;;;;;7.45;2.22;;;;;;;;;;4982537;28;20401;-83
2022/05/28 11:32:25;;;;;;;10.32;1.77;;;;;;;14.89;52.57;68428.13;4985408;28;20050;-84
2022/05/28 11:35:18;;;;;;;7.57;1.70;;;;;;;15.07;53.72;68448.63;5000113;28;20046;-84
2022/05/28 11:37:49;;;;;;;6.15;1.60;;;;;;;;;;4982813;28;20689;-85
2022/05/28 11:40:18;;;;;;;7.53;1.70;;;;;;;15.47;53.66;68487.69;4981236;28;20112;-84
2022/05/28 11:43:07;;;;;;;7.15;1.80;;;;;;;15.84;51.04;68526.03;4986241;28;20522;-85
2022/05/28 11:45:42;;;;;;;6.15;2.10;;;;;;;15.65;49.90;68512.41;4969685;28;20054;-82
2022/05/28 11:51:29;;;;;;;7.47;1.67;;;;;;;15.39;50.18;68475.88;5016627;28;20053;-85
2022/05/28 11:54:18;;;;;;;8.20;1.92;;;;;;;15.40;51.76;68485.09;4989286;28;20077;-84
2022/05/28 11:56:48;;;;;;;9.95;2.22;;;;;;;15.33;52.21;68471.75;4975962;28;20047;-85
2022/05/28 11:59:17;;;;;;;6.78;1.80;;;;;;;15.32;54.22;68470.59;4984196;28;20092;-85
2022/05/28 12:02:00;;;;;;;5.57;1.40;;;;;;;15.25;51.00;68463.22;4986625;28;20108;-84
2022/05/28 12:04:28;;;;;;;6.18;1.85;;;;;;;15.42;52.78;68479.31;5003358;28;20462;-85
2022/05/28 12:07:04;;;;;;;5.60;1.55;;;;;;;;;;4988814;28;20132;-82
2022/05/28 12:09:32;;;;;;;7.82;1.80;;;;;;;;;;4986231;28;20053;-84
2022/05/28 12:12:16;;;;;;;5.07;1.55;;;;;;;15.94;49.21;68545.50;4988065;28;20034;-82
2022/05/28 12:14:44;;;;;;;5.88;1.50;;;;;;;;;;4988339;28;21454;-83
2022/05/28 12:17:25;;;;;;;6.68;1.70;;;;;;;16.46;46.36;68595.00;4991647;28;20576;-84
2022/05/28 12:19:57;;;;;;;6.30;1.60;;;;;;;16.06;46.79;68552.66;4996310;28;20046;-85
2022/05/28 12:22:34;;;;;;;8.27;2.03;;;;;;;16.14;49.62;68567.16;4987758;28;20042;-85
2022/05/28 12:25:11;;;;;;;8.90;2.40;;;;;;;16.02;48.42;68549.25;4985713;28;20045;-85
2022/05/28 12:27:48;;;;;;;7.28;2.00;;;;;;;;;;4987236;28;20177;-85
2022/05/28 12:30:47;;;;;;;5.80;2.00;;;;;;;16.11;48.29;68564.31;4989984;28;20038;-84
2022/05/28 12:33:21;;;;;;;9.00;1.80;;;;;;;16.21;47.52;68570.31;4984576;28;20378;-84
2022/05/28 12:36:15;;;;;;;5.35;1.55;;;;;;;16.56;47.97;68605.84;4988290;28;20072;-83
2022/05/28 12:38:56;;;;;;;7.70;1.48;;;;;;;16.41;47.26;68592.00;5001191;28;20050;-84
2022/05/28 12:41:25;;;;;;;8.13;1.90;;;;;;;16.40;47.03;68588.16;4988992;28;20046;-84